Time;durP1;ratioP1;P1;durP2;ratioP2;P2;SDS_P1;SDS_P2;PMS_P1;PMS_P2;Temp;Humidity;BMP_temperature;BMP_pressure;BME280_temperature;BME280_humidity;BME280_pressure;Samples;Min_cycle;Max_cycle;Signal;HPM_P1;HPM_P2
2022/05/24 00:01:47;;;;;;;11.50;10.50;;;;;;;15.44;80.53;99571.44;4942011;28;20015;-74
2022/05/24 00:04:12;;;;;;;12.50;10.43;;;;;;;15.45;81.19;99575.75;4946886;28;20035;-73
2022/05/24 00:06:37;;;;;;;12.70;11.38;;;;;;;15.53;79.12;99572.09;4980381;28;20037;-73
2022/05/24 00:09:03;;;;;;;13.13;11.05;;;;;;;15.49;79.12;99570.03;4985025;28;20082;-73
2022/05/24 00:11:28;;;;;;;13.43;10.05;;;;;;;15.46;79.49;99566.72;4953570;28;20260;-73
2022/05/24 00:13:54;;;;;;;12.10;10.85;;;;;;;15.39;79.03;99560.53;4947170;28;20022;-72
2022/05/24 00:16:21;;;;;;;12.02;10.50;;;;;;;15.51;79.31;99562.66;4955608;28;20029;-73
2022/05/24 00:18:47;;;;;;;16.30;10.32;;;;;;;15.64;78.48;99562.72;5001624;28;20026;-74
2022/05/24 00:21:12;;;;;;;15.88;10.90;;;;;;;15.53;78.46;99577.44;4965870;28;21165;-73
2022/05/24 00:23:38;;;;;;;10.57;9.57;;;;;;;15.63;78.50;99577.06;4964493;28;20149;-73
2022/05/24 00:26:05;;;;;;;10.85;9.80;;;;;;;15.53;79.88;99572.09;4934627;28;20010;-73
2022/05/24 00:28:31;;;;;;;12.07;9.80;;;;;;;15.59;80.35;99554.47;4949061;28;20014;-73
2022/05/24 00:30:56;;;;;;;12.25;9.82;;;;;;;15.56;79.25;99578.88;4936224;28;20262;-73
2022/05/24 00:33:22;;;;;;;13.40;10.20;;;;;;;15.55;79.67;99575.41;4937209;28;20023;-73
2022/05/24 00:35:48;;;;;;;12.07;10.18;;;;;;;15.55;79.29;99571.91;4934193;28;20002;-72
2022/05/24 00:38:16;;;;;;;11.43;9.27;;;;;;;15.51;80.90;99565.31;4938363;28;20057;-74
2022/05/24 00:40:44;;;;;;;10.93;9.70;;;;;;;15.58;80.65;99560.81;4935366;28;20069;-73
2022/05/24 00:43:27;;;;;;;11.40;10.15;;;;;;;15.57;80.32;99569.88;4954719;28;20841;-74
2022/05/24 00:45:54;;;;;;;10.85;8.95;;;;;;;15.53;80.96;99555.28;4960113;28;20030;-73
2022/05/24 00:48:29;;;;;;;11.57;10.48;;;;;;;15.54;80.00;99556.91;4977338;28;20124;-74
2022/05/24 00:50:54;;;;;;;10.73;9.55;;;;;;;15.59;80.12;99562.47;4948975;28;20403;-74
2022/05/24 00:53:22;;;;;;;10.55;9.38;;;;;;;15.57;80.76;99551.22;4971840;28;20079;-73
2022/05/24 00:55:53;;;;;;;11.38;9.02;;;;;;;15.61;81.67;99544.47;4951949;28;20017;-73
2022/05/24 00:58:26;;;;;;;9.43;8.52;;;;;;;15.59;82.01;99538.47;4953826;28;20034;-74
2022/05/24 01:00:51;;;;;;;11.57;8.73;;;;;;;15.59;82.44;99541.97;4954408;28;20017;-73
2022/05/24 01:03:16;;;;;;;10.27;9.18;;;;;;;15.55;82.21;99529.22;4954487;28;20022;-74
2022/05/24 01:05:43;;;;;;;10.85;9.40;;;;;;;15.57;82.44;99538.69;4954929;28;20018;-74
2022/05/24 01:08:09;;;;;;;11.65;9.38;;;;;;;15.42;82.69;99525.47;4970781;28;20298;-74
2022/05/24 01:10:48;;;;;;;9.65;8.80;;;;;;;15.50;82.67;99523.66;4952208;28;20018;-74
2022/05/24 01:13:21;;;;;;;9.90;8.90;;;;;;;15.52;83.61;99522.44;4972120;28;20034;-74
2022/05/24 01:15:46;;;;;;;10.23;8.30;;;;;;;15.65;83.44;99532.34;4961214;28;20022;-75
2022/05/24 01:18:12;;;;;;;10.02;8.93;;;;;;;15.53;83.78;99539.28;4933867;28;21000;-74
2022/05/24 01:20:38;;;;;;;11.88;9.02;;;;;;;15.53;83.22;99547.28;4928821;28;20081;-74
2022/05/24 01:23:10;;;;;;;10.48;9.18;;;;;;;15.53;82.61;99541.97;4913414;28;20847;-74
2022/05/24 01:25:41;;;;;;;10.05;9.13;;;;;;;15.52;83.16;99553.63;4917180;28;20006;-74
2022/05/24 01:28:26;;;;;;;9.68;8.88;;;;;;;15.49;83.12;99548.72;4932838;28;20020;-74
2022/05/24 01:30:53;;;;;;;11.02;9.50;;;;;;;15.45;81.88;99546.44;4931935;28;20046;-74
2022/05/24 01:36:12;;;;;;;9.45;7.60;;;;;;;15.52;80.60;99554.44;4931360;28;20002;-74
2022/05/24 01:38:55;;;;;;;7.85;6.97;;;;;;;15.49;80.35;99554.84;4919927;28;20038;-74
2022/05/24 01:41:26;;;;;;;7.75;7.10;;;;;;;15.51;79.94;99544.81;4928905;28;20010;-74
2022/05/24 01:43:52;;;;;;;6.53;6.07;;;;;;;15.53;80.12;99555.28;4956408;28;20018;-73
2022/05/24 01:46:21;;;;;;;7.30;6.00;;;;;;;15.50;80.68;99553.00;4927386;28;20010;-73
2022/05/24 01:48:57;;;;;;;7.35;5.80;;;;;;;15.44;79.90;99544.78;4900872;28;20027;-73
2022/05/24 01:51:31;;;;;;;6.18;5.68;;;;;;;15.50;80.42;99547.66;4959487;28;20049;-74
2022/05/24 01:53:58;;;;;;;5.57;4.97;;;;;;;15.56;79.69;99549.56;4933220;28;20026;-73
2022/05/24 01:57:00;;;;;;;5.50;5.10;;;;;;;15.57;79.95;99541.34;4943152;28;20019;-73
2022/05/24 01:59:25;;;;;;;7.15;4.97;;;;;;;15.57;78.40;99548.53;4950695;28;20034;-73
2022/05/24 02:01:53;;;;;;;5.90;5.40;;;;;;;15.56;78.71;99545.03;4930402;28;20888;-72
2022/05/24 02:04:19;;;;;;;5.60;5.10;;;;;;;15.67;80.74;99548.97;4919587;28;20419;-73
2022/05/24 02:06:44;;;;;;;5.07;4.72;;;;;;;15.61;81.47;99555.13;4963179;28;20018;-73
2022/05/24 02:09:11;;;;;;;5.55;5.13;;;;;;;15.57;80.02;99544.03;4954902;28;20481;-73
2022/05/24 02:11:36;;;;;;;5.32;4.82;;;;;;;15.57;80.64;99548.53;4942758;28;20782;-72
2022/05/24 02:14:17;;;;;;;5.85;5.25;;;;;;;15.51;80.20;99542.16;4952140;28;20011;-73
2022/05/24 02:16:48;;;;;;;6.20;5.70;;;;;;;15.57;79.26;99540.53;4954121;28;20018;-73
2022/05/24 02:19:14;;;;;;;6.07;5.63;;;;;;;15.50;79.18;99547.66;4990768;28;20441;-73
2022/05/24 02:21:39;;;;;;;6.55;6.00;;;;;;;15.52;78.79;99551.78;4956071;28;20010;-72
2022/05/24 02:24:17;;;;;;;7.38;5.28;;;;;;;15.49;78.89;99543.38;4954772;28;20023;-73
2022/05/24 02:26:43;;;;;;;5.65;5.22;;;;;;;15.50;79.35;99537.00;4946920;28;20010;-73
2022/05/24 02:29:09;;;;;;;5.97;5.40;;;;;;;15.46;79.31;99532.06;4971282;28;20377;-75
2022/05/24 02:31:35;;;;;;;5.72;5.20;;;;;;;15.42;79.64;99540.66;4971732;28;20236;-73
2022/05/24 02:34:00;;;;;;;5.82;5.43;;;;;;;15.46;79.31;99548.06;4954411;28;20825;-74
2022/05/24 02:36:26;;;;;;;5.80;5.40;;;;;;;15.47;78.91;99546.25;4954051;28;20035;-73
2022/05/24 02:38:51;;;;;;;6.28;5.80;;;;;;;15.46;77.47;99549.91;4951878;28;20031;-74
2022/05/24 02:41:28;;;;;;;6.13;5.38;;;;;;;15.46;75.87;99548.06;4951093;28;20022;-74
2022/05/24 02:43:54;;;;;;;6.63;5.60;;;;;;;15.41;76.47;99552.34;4935457;28;20164;-74
2022/05/24 02:46:20;;;;;;;6.85;5.00;;;;;;;15.13;76.54;99550.59;4943900;28;20046;-74
2022/05/24 02:48:47;;;;;;;5.90;4.47;;;;;;;15.03;76.75;99542.94;4952647;28;20201;-73
2022/05/24 02:51:13;;;;;;;6.85;4.50;;;;;;;15.12;76.61;99538.28;4954439;28;20030;-73
2022/05/24 02:53:39;;;;;;;5.60;4.50;;;;;;;15.03;75.20;99526.94;4953178;28;20846;-74
2022/05/24 02:56:05;;;;;;;4.63;4.18;;;;;;;15.02;73.95;99527.97;4954059;28;20220;-73
2022/05/24 02:58:30;;;;;;;5.00;4.50;;;;;;;15.02;73.83;99530.63;4937392;28;20041;-74
2022/05/24 03:00:56;;;;;;;5.22;3.95;;;;;;;14.97;74.22;99538.38;4936655;28;20018;-73
2022/05/24 03:03:21;;;;;;;5.40;4.45;;;;;;;15.06;73.95;99542.53;4970574;28;20033;-73
2022/05/24 03:05:46;;;;;;;6.95;4.63;;;;;;;15.02;74.43;99538.63;4969858;28;20002;-73
2022/05/24 03:10:56;;;;;;;6.90;4.30;;;;;;;15.04;74.48;99528.56;4956055;28;20053;-73
2022/05/24 03:16:11;;;;;;;;;;;;;;;15.08;73.86;99539.69;4937926;28;20038;-73
2022/05/24 03:18:37;;;;;;;6.13;4.80;;;;;;;15.17;72.98;99538.47;4972139;28;19975;-73
2022/05/24 03:21:02;;;;;;;6.00;4.25;;;;;;;15.20;73.70;99545.25;4951687;28;20125;-73
2022/05/24 03:23:27;;;;;;;5.35;4.50;;;;;;;15.12;74.10;99543.59;4970150;28;20110;-73
2022/05/24 03:25:53;;;;;;;6.75;4.45;;;;;;;15.14;74.06;99548.72;4967910;28;20018;-73
2022/05/24 03:28:20;;;;;;;4.35;3.95;;;;;;;15.13;75.53;99557.72;4971329;28;20022;-74
2022/05/24 03:30:45;;;;;;;6.00;4.60;;;;;;;15.06;73.51;99550.53;4937458;28;20819;-73
2022/05/24 03:33:11;;;;;;;6.25;3.80;;;;;;;15.00;72.38;99556.63;4928386;28;20012;-73
2022/05/24 03:35:36;;;;;;;5.93;4.03;;;;;;;14.91;71.95;99552.47;4913449;28;20222;-73
2022/05/24 03:38:02;;;;;;;4.78;3.53;;;;;;;14.89;71.00;99551.84;4912176;28;20508;-74
2022/05/24 03:40:27;;;;;;;4.45;3.22;;;;;;;14.70;68.81;99564.81;4915643;28;20035;-74
2022/05/24 03:42:54;;;;;;;5.30;3.28;;;;;;;14.69;69.19;99560.53;4929744;28;20241;-74
2022/05/24 03:45:20;;;;;;;5.90;3.15;;;;;;;14.72;69.44;99554.81;4950466;28;20018;-73
2022/05/24 03:47:45;;;;;;;4.03;3.03;;;;;;;14.71;69.35;99569.13;4948570;28;20026;-75
2022/05/24 03:50:11;;;;;;;3.40;3.00;;;;;;;14.68;68.83;99560.69;4969829;28;20025;-74
2022/05/24 03:52:36;;;;;;;4.60;2.30;;;;;;;14.71;68.54;99561.16;4939329;28;20533;-74
2022/05/24 03:55:01;;;;;;;4.10;2.78;;;;;;;14.72;69.50;99565.47;4934396;28;20022;-74
2022/05/24 04:00:11;;;;;;;;;;;;;;;14.66;68.23;99562.75;4949986;28;20937;-75
2022/05/24 04:02:36;;;;;;;4.65;2.85;;;;;;;14.64;68.52;99573.59;4944462;28;19905;-75
2022/05/24 04:05:02;;;;;;;4.45;2.58;;;;;;;14.70;68.58;99575.47;4912300;28;20023;-75
2022/05/24 04:07:27;;;;;;;3.78;2.50;;;;;;;14.68;68.57;99571.34;4946500;28;20651;-74
2022/05/24 04:09:53;;;;;;;3.70;2.53;;;;;;;14.72;68.18;99581.44;4949499;28;20903;-75
2022/05/24 04:12:18;;;;;;;4.80;2.83;;;;;;;14.74;67.27;99571.41;4928868;28;20512;-75
2022/05/24 04:14:43;;;;;;;4.63;2.40;;;;;;;14.71;67.64;99582.44;4935383;28;20230;-75
2022/05/24 04:17:09;;;;;;;3.78;2.45;;;;;;;14.69;68.27;99588.97;4941908;28;20019;-74
2022/05/24 04:19:34;;;;;;;3.83;2.63;;;;;;;14.64;68.45;99592.22;4948527;28;20111;-74
2022/05/24 04:22:00;;;;;;;2.75;2.40;;;;;;;14.69;67.77;99599.63;4934068;28;20030;-75
2022/05/24 04:24:25;;;;;;;5.15;2.40;;;;;;;14.62;69.35;99607.53;4969061;28;20032;-74
2022/05/24 04:26:50;;;;;;;4.13;2.40;;;;;;;14.62;68.91;99606.69;4964607;28;20330;-74
2022/05/24 04:29:16;;;;;;;3.67;2.08;;;;;;;14.62;70.22;99601.38;4947866;28;20014;-75
2022/05/24 04:31:41;;;;;;;4.47;2.42;;;;;;;14.63;70.35;99593.22;4967835;28;21034;-74
2022/05/24 04:34:07;;;;;;;2.92;2.10;;;;;;;14.53;69.74;99590.03;4932966;28;20027;-74
2022/05/24 04:36:32;;;;;;;7.03;2.70;;;;;;;14.60;69.00;99601.56;4964160;28;20026;-74
2022/05/24 04:38:58;;;;;;;5.22;2.40;;;;;;;14.49;71.12;99594.09;4967844;28;20833;-73
2022/05/24 04:44:07;;;;;;;;;;;;;;;14.39;73.70;99592.56;4945526;28;20992;-74
2022/05/24 04:49:19;;;;;;;4.60;2.53;;;;;;;14.27;72.39;99634.03;4968252;28;20928;-75
2022/05/24 04:51:44;;;;;;;4.20;2.20;;;;;;;14.12;73.81;99641.22;4951578;28;20117;-75
2022/05/24 04:54:10;;;;;;;4.03;2.42;;;;;;;14.14;73.19;99655.16;4967454;28;20037;-75
2022/05/24 04:56:35;;;;;;;4.97;2.40;;;;;;;13.99;74.92;99644.53;4941892;28;20010;-75
2022/05/24 04:59:00;;;;;;;4.57;2.50;;;;;;;13.99;76.82;99653.34;4954156;28;20046;-75
2022/05/24 05:01:26;;;;;;;6.30;2.90;;;;;;;13.83;75.40;99665.03;4940612;28;20841;-74
2022/05/24 05:03:51;;;;;;;7.65;3.38;;;;;;;13.82;76.24;99681.13;4968851;28;20019;-75
2022/05/24 05:06:18;;;;;;;5.35;3.15;;;;;;;14.01;76.46;99683.22;4951150;28;20018;-74
2022/05/24 05:08:43;;;;;;;5.72;2.63;;;;;;;13.83;78.66;99693.44;4953023;28;20026;-74
2022/05/24 05:11:08;;;;;;;7.07;3.00;;;;;;;13.66;79.93;99701.56;4950015;28;20028;-75
2022/05/24 05:13:34;;;;;;;7.22;3.20;;;;;;;13.62;80.58;99700.31;4951978;28;20026;-75
2022/05/24 05:15:59;;;;;;;6.22;3.45;;;;;;;13.56;82.60;99709.00;4919467;28;20210;-74
2022/05/24 05:18:25;;;;;;;6.10;3.17;;;;;;;13.53;81.92;99706.72;4966625;28;20026;-74
2022/05/24 05:20:50;;;;;;;4.75;3.10;;;;;;;13.52;83.88;99713.88;4969580;28;20022;-75
2022/05/24 05:23:16;;;;;;;6.03;3.22;;;;;;;13.47;84.42;99713.56;4933865;28;19994;-75
2022/05/24 05:25:42;;;;;;;4.32;2.97;;;;;;;13.47;86.22;99724.22;4948899;28;20014;-73
2022/05/24 05:28:07;;;;;;;4.55;3.03;;;;;;;13.40;86.18;99728.59;4950394;28;20006;-74
2022/05/24 05:33:17;;;;;;;6.88;3.00;;;;;;;13.35;87.20;99737.13;4944019;28;20438;-73
2022/05/24 05:35:46;;;;;;;4.07;3.13;;;;;;;13.38;86.43;99728.78;4947548;28;20412;-75
2022/05/24 05:38:11;;;;;;;5.72;3.17;;;;;;;13.36;86.51;99733.44;4930662;28;20572;-73
2022/05/24 05:40:37;;;;;;;5.55;3.53;;;;;;;13.34;86.77;99729.28;4930768;28;20363;-74
2022/05/24 05:43:02;;;;;;;4.45;3.00;;;;;;;13.40;86.47;99729.41;4930982;28;20018;-74
2022/05/24 05:45:28;;;;;;;5.55;2.85;;;;;;;13.36;86.42;99736.09;4949177;28;20102;-74
2022/05/24 05:47:54;;;;;;;6.47;2.83;;;;;;;13.30;87.49;99739.44;4955238;28;20148;-74
2022/05/24 05:50:20;;;;;;;3.40;2.70;;;;;;;13.29;88.71;99740.44;4948261;28;20016;-74
2022/05/24 05:52:46;;;;;;;5.75;3.28;;;;;;;13.36;88.11;99744.06;4914532;28;20364;-75
2022/05/24 05:55:12;;;;;;;8.68;3.40;;;;;;;13.32;88.31;99747.25;4933624;28;20015;-74
2022/05/24 05:57:38;;;;;;;7.55;3.20;;;;;;;13.29;86.48;99763.53;4912405;28;20046;-75
2022/05/24 06:00:04;;;;;;;5.00;3.40;;;;;;;13.18;85.45;99762.13;4949319;28;20065;-73
2022/05/24 06:02:30;;;;;;;7.70;3.40;;;;;;;13.17;87.22;99760.47;4946998;28;20074;-73
2022/05/24 06:04:55;;;;;;;9.70;3.80;;;;;;;13.14;85.25;99776.75;4932456;28;20003;-74
2022/05/24 06:07:22;;;;;;;10.00;4.30;;;;;;;12.99;86.96;99790.00;4932962;28;20255;-74
2022/05/24 06:09:47;;;;;;;8.10;3.95;;;;;;;13.03;88.15;99784.16;4934235;28;20038;-74
2022/05/24 06:12:13;;;;;;;7.63;4.10;;;;;;;13.06;88.92;99793.59;4915518;28;20011;-74
2022/05/24 06:14:38;;;;;;;9.48;4.10;;;;;;;13.08;89.26;99793.41;4955696;28;20854;-74
2022/05/24 06:17:04;;;;;;;7.45;4.32;;;;;;;13.15;90.78;99794.34;4963254;28;20014;-75
2022/05/24 06:19:29;;;;;;;5.13;3.40;;;;;;;13.12;89.94;99795.53;4953378;28;20111;-74
2022/05/24 06:21:54;;;;;;;5.25;2.58;;;;;;;12.95;88.09;99802.78;4970817;28;20279;-74
2022/05/24 06:24:20;;;;;;;4.63;2.60;;;;;;;13.00;87.68;99802.25;4952647;28;20030;-75
2022/05/24 06:26:45;;;;;;;3.63;2.70;;;;;;;12.89;86.89;99808.81;4970214;28;20359;-76
2022/05/24 06:29:11;;;;;;;3.40;2.30;;;;;;;12.78;85.70;99814.50;4954017;28;20030;-74
2022/05/24 06:31:36;;;;;;;3.35;2.40;;;;;;;12.87;87.15;99814.28;4953181;28;20531;-75
2022/05/24 06:34:01;;;;;;;4.80;2.17;;;;;;;12.86;86.77;99817.94;4938739;28;20501;-75
2022/05/24 06:36:27;;;;;;;3.45;1.90;;;;;;;12.81;86.75;99820.28;4968537;28;20861;-74
2022/05/24 06:38:52;;;;;;;4.47;1.80;;;;;;;12.71;84.05;99833.78;4931705;28;20633;-74
2022/05/24 06:41:18;;;;;;;3.33;1.60;;;;;;;12.66;82.41;99840.59;4942694;28;20011;-75
2022/05/24 06:43:43;;;;;;;3.42;1.98;;;;;;;12.84;82.77;99841.16;4977396;28;20026;-75
2022/05/24 06:46:08;;;;;;;3.17;1.42;;;;;;;12.50;79.18;99818.44;4975578;28;20023;-74
2022/05/24 06:48:38;;;;;;;4.03;1.40;;;;;;;12.54;83.40;99825.06;4953021;28;20367;-74
2022/05/24 06:51:11;;;;;;;2.60;1.50;;;;;;;12.63;83.75;99817.88;4967988;28;20016;-74
2022/05/24 06:53:38;;;;;;;8.77;1.48;;;;;;;12.70;83.13;99813.56;4968273;28;20404;-75
2022/05/24 06:56:05;;;;;;;2.05;1.30;;;;;;;12.85;84.23;99826.09;4952248;28;20006;-74
2022/05/24 06:58:30;;;;;;;4.20;1.67;;;;;;;12.83;82.67;99836.03;4953260;28;20042;-74
2022/05/24 07:03:40;;;;;;;3.20;1.67;;;;;;;12.95;83.32;99837.31;4970488;28;20065;-74
2022/05/24 07:06:05;;;;;;;5.63;1.90;;;;;;;13.02;82.26;99838.25;4967630;28;20014;-74
2022/05/24 07:08:30;;;;;;;4.22;1.98;;;;;;;13.07;81.34;99845.69;4950334;28;20029;-75
2022/05/24 07:10:56;;;;;;;4.43;2.17;;;;;;;13.17;82.88;99845.47;4950524;28;20010;-74
2022/05/24 07:13:21;;;;;;;4.00;1.85;;;;;;;13.12;81.51;99863.78;4952422;28;20023;-74
2022/05/24 07:15:48;;;;;;;4.65;2.17;;;;;;;13.25;81.18;99858.69;4950208;28;20049;-74
2022/05/24 07:18:13;;;;;;;3.65;2.20;;;;;;;13.43;81.56;99869.09;4951947;28;20049;-75
2022/05/24 07:20:39;;;;;;;3.47;1.60;;;;;;;13.50;82.98;99870.03;4966085;28;20063;-74
2022/05/24 07:23:14;;;;;;;1.75;1.30;;;;;;;13.58;81.55;99885.09;4949809;28;20523;-74
2022/05/24 07:25:41;;;;;;;1.40;1.10;;;;;;;13.49;80.47;99878.19;4952474;28;20002;-75
2022/05/24 07:28:06;;;;;;;3.22;1.27;;;;;;;13.60;80.54;99884.91;4968616;28;20079;-75
2022/05/24 07:30:32;;;;;;;3.22;1.10;;;;;;;13.79;79.05;99880.94;4950306;28;19998;-74
2022/05/24 07:32:58;;;;;;;4.75;1.58;;;;;;;13.81;77.14;99894.91;4933875;28;20019;-75
2022/05/24 07:35:23;;;;;;;1.42;1.10;;;;;;;13.91;76.56;99887.47;4950856;28;20014;-75
2022/05/24 07:37:49;;;;;;;2.17;1.13;;;;;;;14.20;79.21;99893.84;4963621;28;20274;-75
2022/05/24 07:48:10;;;;;;;1.23;0.93;;;;;;;13.96;76.81;99898.41;4968796;28;20646;-73
2022/05/24 07:50:36;;;;;;;3.30;1.40;;;;;;;14.11;78.62;99900.28;4966656;28;20050;-75
2022/05/24 07:53:01;;;;;;;4.68;1.13;;;;;;;14.22;76.34;99898.00;4969354;28;20230;-75
2022/05/24 07:55:26;;;;;;;2.72;1.42;;;;;;;14.01;76.48;99900.53;4966629;28;20633;-74
2022/05/24 07:57:52;;;;;;;3.13;1.65;;;;;;;14.19;77.71;99897.53;4929880;28;20083;-74
2022/05/24 08:00:18;;;;;;;3.22;1.58;;;;;;;14.33;76.68;99896.72;4968540;28;20778;-73
2022/05/24 08:02:43;;;;;;;2.00;1.50;;;;;;;14.40;75.70;99889.66;4953880;28;20042;-73
2022/05/24 08:05:09;;;;;;;3.33;1.60;;;;;;;14.26;75.64;99898.47;4969188;28;20929;-74
2022/05/24 08:07:35;;;;;;;6.38;2.20;;;;;;;14.36;72.65;99899.03;4965510;28;20121;-73
2022/05/24 08:10:00;;;;;;;3.42;1.77;;;;;;;14.63;72.21;99906.59;4964347;28;20003;-74
2022/05/24 08:12:25;;;;;;;4.78;1.77;;;;;;;15.04;72.56;99906.91;4964355;28;19995;-74
2022/05/24 08:14:52;;;;;;;2.33;1.67;;;;;;;15.11;71.57;99902.47;4933002;28;20689;-73
2022/05/24 08:17:17;;;;;;;3.40;1.80;;;;;;;15.03;72.09;99905.28;4964881;28;20018;-74
2022/05/24 08:19:42;;;;;;;1.70;1.60;;;;;;;14.81;69.14;99900.91;4950704;28;20033;-74
2022/05/24 08:22:08;;;;;;;2.85;1.80;;;;;;;14.64;69.38;99905.56;4969418;28;20875;-73
2022/05/24 08:24:33;;;;;;;2.63;1.67;;;;;;;14.62;68.12;99908.41;4972294;28;20208;-74
2022/05/24 08:26:59;;;;;;;3.15;1.90;;;;;;;14.80;67.42;99921.38;4952653;28;20113;-73
2022/05/24 08:29:24;;;;;;;2.63;1.65;;;;;;;14.96;68.52;99912.38;4974198;28;20026;-73
2022/05/24 08:31:49;;;;;;;2.20;1.50;;;;;;;14.91;66.49;99917.41;4970526;28;20032;-73
2022/05/24 08:34:15;;;;;;;1.50;1.25;;;;;;;15.04;66.84;99920.22;4971930;28;20006;-74
2022/05/24 08:36:40;;;;;;;3.95;1.50;;;;;;;15.10;67.97;99919.50;4952778;28;20131;-74
2022/05/24 08:39:06;;;;;;;2.90;1.60;;;;;;;15.13;68.66;99926.31;4973818;28;20123;-73
2022/05/24 08:42:03;;;;;;;1.85;1.48;;;;;;;15.10;68.59;99922.16;4952882;28;20495;-73
2022/05/24 08:50:16;;;;;;;2.15;1.45;;;;;;;15.06;64.97;99941.34;4950467;28;20104;-74
2022/05/24 08:53:06;;;;;;;3.63;1.38;;;;;;;15.18;66.13;99944.38;4964282;28;20325;-74
2022/05/24 08:55:32;;;;;;;1.60;1.48;;;;;;;15.08;65.93;99928.69;4938163;28;20018;-75
2022/05/24 08:57:58;;;;;;;3.90;1.90;;;;;;;15.01;64.44;99935.78;4947238;28;20019;-74
2022/05/24 09:00:30;;;;;;;5.72;1.35;;;;;;;14.88;65.61;99944.44;4946042;28;20941;-74
2022/05/24 09:02:55;;;;;;;2.40;1.30;;;;;;;14.59;64.55;99951.34;4947412;28;20080;-73
2022/05/24 09:05:25;;;;;;;2.13;1.20;;;;;;;14.62;65.94;99961.66;4946947;28;20034;-75
2022/05/24 09:08:16;;;;;;;4.00;1.50;;;;;;;14.60;65.22;99966.34;4930491;28;20023;-74
2022/05/24 09:10:46;;;;;;;2.47;1.20;;;;;;;14.88;63.94;99971.06;4946709;28;20864;-75
2022/05/24 09:13:22;;;;;;;1.30;1.20;;;;;;;15.45;62.77;99972.16;4931795;28;20010;-73
2022/05/24 09:15:50;;;;;;;2.10;1.20;;;;;;;15.59;62.14;99968.63;4948765;28;20018;-74
2022/05/24 09:18:31;;;;;;;2.25;1.45;;;;;;;15.69;62.72;99967.50;4930324;28;20033;-74
2022/05/24 09:20:57;;;;;;;4.35;1.52;;;;;;;15.52;62.04;99973.06;4948487;28;20021;-75
2022/05/24 09:23:29;;;;;;;2.22;1.42;;;;;;;15.63;61.68;99977.91;4947168;28;20015;-74
2022/05/24 09:25:57;;;;;;;2.15;1.48;;;;;;;15.66;61.58;99984.72;4930508;28;20003;-76
2022/05/24 09:28:46;;;;;;;3.45;1.48;;;;;;;15.85;60.82;99983.31;4951013;28;20088;-75
2022/05/24 09:31:38;;;;;;;2.58;1.50;;;;;;;16.02;59.42;99986.56;4966393;28;20011;-74
2022/05/24 09:34:19;;;;;;;4.10;1.38;;;;;;;15.92;60.15;99988.69;4953339;28;20014;-74
2022/05/24 09:37:04;;;;;;;1.90;1.10;;;;;;;15.85;60.76;99987.81;4970860;28;20028;-74
2022/05/24 09:39:35;;;;;;;2.00;1.10;;;;;;;15.57;59.65;99993.84;4953858;28;20169;-75
2022/05/24 09:42:12;;;;;;;1.65;1.20;;;;;;;15.51;60.48;99991.94;4947895;28;20022;-75
2022/05/24 09:45:08;;;;;;;3.60;1.50;;;;;;;15.52;60.72;100001.59;4969260;28;20015;-74
2022/05/24 09:47:35;;;;;;;3.38;1.17;;;;;;;15.70;58.74;100007.31;4951544;28;20810;-73
2022/05/24 09:50:21;;;;;;;2.65;1.10;;;;;;;15.93;58.23;100017.03;4957694;28;20950;-75
2022/05/24 09:53:01;;;;;;;2.33;1.20;;;;;;;16.46;57.47;100011.34;4968173;28;20025;-75
2022/05/24 09:55:27;;;;;;;1.58;1.00;;;;;;;16.76;57.23;100009.28;4967095;28;20026;-74
2022/05/24 09:57:52;;;;;;;5.15;1.33;;;;;;;16.77;56.21;100010.97;4969469;28;20336;-74
2022/05/24 10:00:20;;;;;;;2.90;1.02;;;;;;;16.97;55.46;100018.31;4950601;28;20038;-74
2022/05/24 10:02:46;;;;;;;1.38;1.08;;;;;;;17.50;54.98;100021.25;4935283;28;20847;-75
2022/05/24 10:05:19;;;;;;;1.77;1.10;;;;;;;17.71;53.79;100019.47;4935169;28;20019;-74
2022/05/24 10:08:00;;;;;;;2.53;0.98;;;;;;;17.58;52.66;100019.41;4950013;28;20027;-75
2022/05/24 10:10:39;;;;;;;1.98;0.90;;;;;;;18.16;53.69;100019.78;4936490;28;20957;-75
2022/05/24 10:13:15;;;;;;;1.48;0.90;;;;;;;18.19;50.70;100022.03;4952857;28;20015;-75
2022/05/24 10:15:58;;;;;;;0.95;0.80;;;;;;;18.59;49.33;100023.91;4953426;28;19998;-76
2022/05/24 10:18:42;;;;;;;2.13;0.80;;;;;;;18.76;49.14;100023.47;4969638;28;20023;-75
2022/05/24 10:21:08;;;;;;;;;;;;;;;18.68;47.52;100029.84;4970916;28;20151;-75
2022/05/24 10:23:51;;;;;;;0.73;0.73;;;;;;;18.50;47.84;100019.75;4974639;28;19901;-75
2022/05/24 10:26:47;;;;;;;0.95;0.82;;;;;;;18.92;48.61;100015.00;4971336;28;20018;-74
2022/05/24 10:29:33;;;;;;;1.92;0.70;;;;;;;20.20;47.52;100010.69;4970353;28;20019;-74
2022/05/24 10:39:51;;;;;;;2.38;0.93;;;;;;;19.37;45.55;100022.31;4960295;28;20045;-74
2022/05/24 10:42:21;;;;;;;2.97;0.88;;;;;;;18.72;46.38;100020.38;4928710;28;20042;-73
2022/05/24 10:44:49;;;;;;;0.85;0.85;;;;;;;18.17;47.83;100026.75;4976608;28;20029;-74
2022/05/24 10:47:21;;;;;;;1.17;0.82;;;;;;;17.67;48.92;100026.25;4955309;28;20049;-76
2022/05/24 10:49:49;;;;;;;2.28;0.77;;;;;;;17.27;49.62;100034.91;4965918;28;20018;-74
2022/05/24 10:52:47;;;;;;;2.28;0.75;;;;;;;17.32;51.48;100027.13;4967888;28;20026;-75
2022/05/24 10:55:57;;;;;;;3.55;0.90;;;;;;;17.47;49.38;100034.16;4951049;28;20030;-75
2022/05/24 10:58:22;;;;;;;0.85;0.65;;;;;;;17.53;49.35;100041.41;4964626;28;20031;-75
2022/05/24 11:00:50;;;;;;;3.55;0.88;;;;;;;17.59;49.60;100026.41;4966225;28;20393;-74
2022/05/24 11:03:20;;;;;;;2.58;0.75;;;;;;;18.25;48.61;100055.22;4952720;28;20023;-75
2022/05/24 11:05:46;;;;;;;2.78;0.90;;;;;;;19.74;45.67;100035.94;4967150;28;20383;-76
2022/05/24 11:08:46;;;;;;;2.45;0.93;;;;;;;19.74;45.04;100044.00;4968009;28;20807;-74
2022/05/24 11:11:26;;;;;;;1.75;0.90;;;;;;;19.61;45.86;100028.78;4968734;28;20938;-75
2022/05/24 11:14:15;;;;;;;0.93;0.70;;;;;;;20.77;46.27;100031.31;4967556;28;20783;-75
2022/05/24 11:16:47;;;;;;;1.92;0.82;;;;;;;21.81;41.63;100048.59;4961236;28;20133;-75
2022/05/24 11:19:13;;;;;;;0.70;0.70;;;;;;;20.99;41.21;100039.00;4966946;28;20050;-75
2022/05/24 11:21:42;;;;;;;1.55;1.00;;;;;;;21.01;40.97;100032.34;4966398;28;20348;-75
2022/05/24 11:24:17;;;;;;;0.95;0.90;;;;;;;21.05;43.51;100038.94;4950369;28;20229;-74
2022/05/24 11:26:50;;;;;;;1.73;0.90;;;;;;;20.64;42.56;100031.44;4949184;28;20007;-74
2022/05/24 11:29:24;;;;;;;2.58;1.20;;;;;;;19.80;43.94;100043.19;4950163;28;20033;-74
2022/05/24 11:31:51;;;;;;;6.22;1.00;;;;;;;19.33;45.37;100021.91;4966833;28;20010;-74
2022/05/24 11:34:34;;;;;;;1.45;1.10;;;;;;;19.04;45.80;100033.97;4949114;28;20450;-75
2022/05/24 11:37:24;;;;;;;3.93;1.10;;;;;;;18.65;45.96;100030.28;4950992;28;20022;-74
2022/05/24 11:39:49;;;;;;;1.85;0.90;;;;;;;18.58;47.36;100042.88;4946527;28;20041;-74
2022/05/24 11:42:34;;;;;;;0.93;0.90;;;;;;;18.32;48.48;100036.47;4945707;28;20114;-75
2022/05/24 11:45:00;;;;;;;2.35;1.20;;;;;;;18.19;49.87;100048.00;4962177;28;21130;-74
2022/05/24 11:47:34;;;;;;;3.00;0.80;;;;;;;18.12;48.84;100053.34;4949247;28;20025;-74
2022/05/24 11:50:04;;;;;;;2.58;0.80;;;;;;;17.94;49.40;100055.78;4966655;28;20581;-75
2022/05/24 11:53:02;;;;;;;2.13;0.85;;;;;;;18.32;49.23;100058.72;4931809;28;20008;-74
2022/05/24 11:55:37;;;;;;;2.03;0.80;;;;;;;19.10;49.39;100051.88;4952352;28;20126;-75
2022/05/24 11:58:29;;;;;;;5.32;1.10;;;;;;;20.18;45.92;100055.78;4965625;28;20377;-74
2022/05/24 12:01:09;;;;;;;2.83;0.90;;;;;;;20.29;46.63;100062.31;4967187;28;20110;-74
2022/05/24 12:09:21;;;;;;;2.80;0.80;;;;;;;20.54;42.95;100073.06;4976792;28;20068;-74
2022/05/24 12:11:47;;;;;;;1.90;0.90;;;;;;;20.48;42.52;100067.75;4967889;28;20326;-75
2022/05/24 12:14:15;;;;;;;4.22;0.77;;;;;;;20.41;44.21;100070.50;4957009;28;20424;-75
2022/05/24 12:16:46;;;;;;;0.95;0.70;;;;;;;19.78;43.40;100069.38;4969568;28;20323;-75
2022/05/24 12:19:43;;;;;;;0.85;0.85;;;;;;;20.10;42.72;100074.03;4973056;28;20038;-75
2022/05/24 12:22:32;;;;;;;1.73;0.70;;;;;;;20.81;40.86;100075.56;4973515;28;20969;-75
2022/05/24 12:25:03;;;;;;;1.55;0.70;;;;;;;21.31;40.59;100081.88;4972081;28;20133;-75
2022/05/24 12:27:49;;;;;;;1.15;0.70;;;;;;;22.52;38.12;100073.91;4972040;28;20048;-75
2022/05/24 12:30:29;;;;;;;5.65;0.50;;;;;;;22.91;37.60;100085.03;4942960;28;20067;-76
2022/05/24 12:32:56;;;;;;;1.92;0.57;;;;;;;23.56;35.66;100087.81;4981953;28;20714;-75